Terminal Aerodrome Forecast
Issued by NWS Twin Cities, MN

Home | Current Version | Previous Version | Text Only | Print | Product List | Glossary Off
Versions: 1 2 3 4 5 6 7 8 9 10 11 12 13 14 15 16 17 18 19 20 21 22 23 24 25 26 27

000
FTUS43 KMPX 011302 AAA
TAFMSP
TAF AMD
KMSP 011302Z 0113/0218 24008KT P6SM BKN017
      TEMPO 0113/0114 OVC013
     FM011500 26009KT P6SM FEW040 SCT200
     FM011900 27011G17KT P6SM SCT050
     FM020300 28009KT P6SM SKC
     FM021500 VRB05KT P6SM FEW050 SCT250=

USA.gov is the U.S. government's official web portal to all federal, state and local government web resources and services.